KHTO

East Hampton Airport

East Hampton, New York, USA
METAR KHTO 151655Z AUTO 04004KT 7SM SCT003 OVC012 09/08 A3013 RMK AO2 P0001 T00860082
Observed Flight Rules
Dec-15 @ 16:55 UTC (25 minutes ago) Marginal Visual Flight Rules
Wind Visibility Clouds
40° at 4 knots 7 miles
  • Scattered at 300' AGL
  • Overcast at 1,200' AGL
Temperatures Readings Precipitation
Current 9°C / 48°F
Dewpoint 8°C / 46°F
Humidity 94%
Altimeter 30.13" Hg
Pressure 1020 hPa
Elevation 17
Current Rain 0.01
METAR KHTO 151655Z AUTO 04004KT 7SM SCT003 OVC012 09/08 A3013 RMK AO2 P0001 T00860082
Observed Flight Rules
Dec-15 @ 16:55 UTC
(25 minutes ago)
MVFR
Wind Visibility
40° at 4 knots 7 miles
Clouds
  • Scattered at 300' AGL
  • Overcast at 1,200' AGL
Temperature Dewpoint
9°C / 48°F 8°C / 46°F
Humidity Altimeter Pressure
94% 30.13" Hg 1020 hPa
Current Rain
0.01